Fort Wayne, Indiana
Current Conditions -  °F | °C
As of 7:10 AM on Thursday 23 Oct 2014 (Local Time) from KFWA Reporting Station
Haze Haze  
Wind Chill: 30°   Ceiling: 200
Heat Index: 30°   Visibility: 1.2mi
Dew Point: 28°   Wind: 0mph
Humidity: 92%   Direction: NA
Pressure: 30.27"   Gusts: NA
Location:  41.08°N, 85.1°W
Report Text: KFWA 231110Z 00000KT 1 1/4SM BR OVC002 M01/M02 A3027 RMK AO2 VIS 1/2V1 1/2 T10111022 $
Loading
Personal Weather Stations






























Interactive Weather Map
Tropical Storm Tracking
New forecast layout! Learn more

10-Day Weather Forecast

Advertisements
Track Severe Weather on mobile